Time;durP1;ratioP1;P1;durP2;ratioP2;P2;SDS_P1;SDS_P2;PMS_P1;PMS_P2;Temp;Humidity;BMP_temperature;BMP_pressure;BME280_temperature;BME280_humidity;BME280_pressure;Samples;Min_cycle;Max_cycle;Signal;HPM_P1;HPM_P2
2023/03/06 00:00:20;;;;;;;8.23;3.80;;;;;;;5.10;79.03;100842.41;5055053;28;20463;-61
2023/03/06 00:02:46;;;;;;;6.68;3.88;;;;;;;5.13;78.37;100840.75;5055037;28;20051;-62
2023/03/06 00:05:13;;;;;;;6.43;3.80;;;;;;;5.16;78.54;100840.84;5054736;28;20045;-61
2023/03/06 00:07:38;;;;;;;6.93;3.92;;;;;;;5.15;78.80;100839.09;5054756;28;20033;-61
2023/03/06 00:10:04;;;;;;;7.50;3.75;;;;;;;5.13;78.30;100832.88;5054826;28;20079;-62
2023/03/06 00:12:30;;;;;;;5.25;3.70;;;;;;;5.10;78.51;100829.31;5037235;28;20025;-61
2023/03/06 00:14:55;;;;;;;5.72;3.58;;;;;;;5.08;78.90;100830.97;5054613;28;20376;-62
2023/03/06 00:17:21;;;;;;;6.95;4.07;;;;;;;5.01;78.81;100822.94;5054667;28;20033;-61
2023/03/06 00:19:46;;;;;;;6.15;3.90;;;;;;;4.99;79.36;100823.72;5054925;28;20462;-61
2023/03/06 00:22:13;;;;;;;7.00;3.95;;;;;;;4.93;79.36;100807.81;5054836;28;20053;-61
2023/03/06 00:24:39;;;;;;;7.30;4.10;;;;;;;4.96;79.64;100811.38;5054430;28;20060;-61
2023/03/06 00:27:04;;;;;;;7.68;4.18;;;;;;;4.93;79.47;100813.94;5054509;28;20057;-62
2023/03/06 00:29:30;;;;;;;7.70;4.38;;;;;;;4.89;79.13;100814.66;5073806;28;20090;-61
2023/03/06 00:31:55;;;;;;;8.25;4.60;;;;;;;4.87;80.31;100811.09;5074402;28;20337;-62
2023/03/06 00:34:20;;;;;;;7.85;3.83;;;;;;;4.94;80.01;100814.81;5074673;28;20029;-61
2023/03/06 00:36:46;;;;;;;5.90;4.18;;;;;;;4.92;80.14;100816.47;5074277;28;20478;-61
2023/03/06 00:39:11;;;;;;;7.10;3.90;;;;;;;4.94;80.26;100810.47;5074232;28;20035;-61
2023/03/06 00:41:37;;;;;;;7.30;4.28;;;;;;;4.91;79.59;100804.22;5074256;28;20086;-62
2023/03/06 00:44:02;;;;;;;5.35;3.85;;;;;;;4.96;80.37;100798.28;5074441;28;20041;-61
2023/03/06 00:46:27;;;;;;;8.18;4.30;;;;;;;4.97;79.94;100799.22;5074362;28;20132;-61
2023/03/06 00:48:53;;;;;;;6.95;4.45;;;;;;;4.99;80.23;100794.91;5073842;28;20100;-61
2023/03/06 00:51:20;;;;;;;10.00;4.30;;;;;;;4.99;80.23;100794.91;5073983;28;20028;-61
2023/03/06 00:53:46;;;;;;;8.65;4.57;;;;;;;4.96;80.04;100787.81;5073890;28;20033;-61
2023/03/06 00:56:11;;;;;;;6.80;4.65;;;;;;;4.97;79.99;100793.97;5073754;28;20304;-63
2023/03/06 00:58:36;;;;;;;5.93;4.07;;;;;;;4.96;80.08;100785.22;5055905;28;20413;-61
2023/03/06 01:01:02;;;;;;;7.15;4.43;;;;;;;4.96;80.52;100781.69;5073807;28;20024;-61
2023/03/06 01:03:28;;;;;;;8.20;4.57;;;;;;;4.98;80.08;100783.53;5073788;28;20036;-62
2023/03/06 01:05:54;;;;;;;7.05;4.60;;;;;;;4.98;79.88;100780.94;5073305;28;20044;-61
2023/03/06 01:08:19;;;;;;;6.38;4.45;;;;;;;4.97;79.49;100779.16;5073780;28;20079;-61
2023/03/06 01:10:44;;;;;;;6.60;4.47;;;;;;;4.94;79.90;100780.78;5073713;28;20025;-62
2023/03/06 01:13:10;;;;;;;6.32;4.35;;;;;;;4.91;80.31;100778.06;5055577;28;20454;-62
2023/03/06 01:15:35;;;;;;;8.07;4.97;;;;;;;4.86;79.46;100782.25;5073591;28;20033;-61
2023/03/06 01:18:02;;;;;;;8.60;5.10;;;;;;;4.82;79.89;100777.75;5073746;28;20046;-61
2023/03/06 01:20:27;;;;;;;8.10;4.70;;;;;;;4.77;79.27;100773.25;5073760;28;20104;-61
2023/03/06 01:22:55;;;;;;;7.45;4.72;;;;;;;4.71;80.11;100773.06;5073463;28;20118;-62
2023/03/06 01:25:21;;;;;;;9.52;4.90;;;;;;;4.66;80.16;100766.78;5073333;28;20046;-61
2023/03/06 01:27:47;;;;;;;9.23;5.35;;;;;;;4.65;80.33;100772.84;5073352;28;20028;-61
2023/03/06 01:30:12;;;;;;;8.77;5.30;;;;;;;4.63;80.77;100760.56;5073470;28;20039;-61
2023/03/06 01:32:38;;;;;;;9.70;5.10;;;;;;;4.65;80.48;100770.22;5073376;28;20534;-61
2023/03/06 01:35:04;;;;;;;7.80;4.90;;;;;;;4.62;79.87;100772.75;5055149;28;20176;-62
2023/03/06 01:37:29;;;;;;;7.60;5.15;;;;;;;4.59;80.41;100764.81;5073099;28;20028;-61
2023/03/06 01:39:55;;;;;;;8.73;5.43;;;;;;;4.60;80.27;100771.81;5073286;28;20025;-62
2023/03/06 01:42:20;;;;;;;6.90;4.93;;;;;;;4.51;80.33;100761.94;5073379;28;20371;-61
2023/03/06 01:45:03;;;;;;;9.43;5.30;;;;;;;4.50;80.16;100764.50;5055254;28;20464;-61
2023/03/06 01:47:29;;;;;;;8.38;4.90;;;;;;;4.49;80.63;100763.59;5073040;28;20160;-61
2023/03/06 01:49:56;;;;;;;8.15;5.10;;;;;;;4.44;80.04;100754.69;5055035;28;20020;-62
2023/03/06 01:52:27;;;;;;;8.43;5.18;;;;;;;4.43;80.37;100755.53;5072838;28;20028;-62
2023/03/06 01:55:07;;;;;;;9.82;5.60;;;;;;;4.41;80.23;100748.47;5072858;28;20442;-61
2023/03/06 01:57:36;;;;;;;9.80;5.70;;;;;;;4.35;80.37;100754.38;5055000;28;20035;-61
2023/03/06 02:00:08;;;;;;;10.13;5.18;;;;;;;4.37;80.40;100751.81;5072544;28;20020;-61
2023/03/06 02:02:33;;;;;;;8.77;5.28;;;;;;;4.32;80.02;100740.31;5072889;28;20029;-61
2023/03/06 02:05:00;;;;;;;10.95;5.72;;;;;;;4.23;80.27;100746.13;5054955;28;20115;-61
2023/03/06 02:07:27;;;;;;;8.32;5.03;;;;;;;4.18;80.77;100732.88;5072619;28;20035;-61
2023/03/06 02:09:52;;;;;;;8.48;5.32;;;;;;;4.12;81.23;100731.81;5055255;28;20032;-61
2023/03/06 02:12:20;;;;;;;10.73;5.93;;;;;;;4.04;80.69;100735.88;5055159;28;20028;-61
2023/03/06 02:14:46;;;;;;;8.45;5.72;;;;;;;3.98;81.39;100733.91;5072817;28;20017;-61
2023/03/06 02:17:15;;;;;;;9.93;5.75;;;;;;;3.93;81.32;100731.13;5072706;28;20046;-60
2023/03/06 02:20:23;;;;;;;9.07;5.45;;;;;;;3.89;81.78;100726.63;5072782;28;20127;-60
2023/03/06 02:23:30;;;;;;;7.65;5.03;;;;;;;3.81;80.92;100721.97;5038748;28;20056;-60
2023/03/06 02:25:56;;;;;;;9.05;5.75;;;;;;;3.67;81.79;100711.03;5071898;28;20045;-60
2023/03/06 02:28:23;;;;;;;10.93;6.00;;;;;;;3.60;82.35;100712.53;5072779;28;20048;-60
2023/03/06 02:30:51;;;;;;;9.27;5.78;;;;;;;3.59;81.44;100709.84;5072896;28;20024;-60
2023/03/06 02:33:20;;;;;;;8.57;5.78;;;;;;;3.64;82.12;100710.91;5072835;28;20036;-60
2023/03/06 02:35:51;;;;;;;8.63;5.78;;;;;;;3.69;82.00;100714.59;5072902;28;20099;-61
2023/03/06 02:38:19;;;;;;;9.45;5.88;;;;;;;3.59;81.54;100696.78;5072574;28;20028;-60
2023/03/06 02:40:49;;;;;;;10.75;6.05;;;;;;;3.51;82.26;100697.41;5072528;28;20443;-60
2023/03/06 02:43:21;;;;;;;10.18;5.63;;;;;;;3.43;82.43;100696.25;5072812;28;20115;-60
2023/03/06 02:45:49;;;;;;;10.90;5.90;;;;;;;3.40;81.89;100701.34;5072585;28;20028;-60
2023/03/06 02:48:16;;;;;;;8.43;5.38;;;;;;;3.42;82.61;100688.31;5072428;28;20044;-60
2023/03/06 02:50:43;;;;;;;10.15;6.10;;;;;;;3.49;81.58;100696.44;5054386;28;20035;-60
2023/03/06 02:53:10;;;;;;;9.85;5.82;;;;;;;3.54;81.64;100686.16;5072569;28;20024;-61
2023/03/06 02:55:35;;;;;;;8.98;5.68;;;;;;;3.56;81.80;100687.13;5072266;28;20021;-60
2023/03/06 02:58:02;;;;;;;9.35;5.68;;;;;;;3.57;81.55;100694.13;5072427;28;20178;-60
2023/03/06 03:00:27;;;;;;;8.65;5.40;;;;;;;3.59;81.38;100694.16;5072337;28;20513;-60
2023/03/06 03:02:53;;;;;;;10.13;5.95;;;;;;;3.61;81.16;100697.75;5054181;28;20055;-61
2023/03/06 03:05:19;;;;;;;8.85;5.57;;;;;;;3.60;80.95;100696.88;5072080;28;20048;-60
2023/03/06 03:07:44;;;;;;;8.90;5.60;;;;;;;3.62;80.64;100689.94;5072482;28;20081;-60
2023/03/06 03:10:11;;;;;;;9.80;6.03;;;;;;;3.61;80.23;100689.91;5072326;28;20474;-61
2023/03/06 03:12:37;;;;;;;10.55;6.13;;;;;;;3.57;80.59;100688.91;5074233;28;20024;-61
2023/03/06 03:15:03;;;;;;;9.35;5.60;;;;;;;3.51;79.75;100681.75;5075877;28;20033;-60
2023/03/06 03:17:28;;;;;;;11.25;5.75;;;;;;;3.48;80.17;100681.63;5076187;28;20107;-60
2023/03/06 03:19:54;;;;;;;8.23;5.32;;;;;;;3.48;81.06;100680.75;5057729;28;20107;-60
2023/03/06 03:22:19;;;;;;;10.52;5.82;;;;;;;3.43;80.93;100672.72;5074990;28;20592;-60
2023/03/06 03:24:47;;;;;;;8.63;5.60;;;;;;;3.36;81.33;100677.66;5057489;28;20565;-61
2023/03/06 03:27:13;;;;;;;11.73;6.00;;;;;;;3.32;80.77;100670.56;5075805;28;20021;-60
2023/03/06 03:29:39;;;;;;;8.88;5.40;;;;;;;3.30;80.93;100666.97;5075639;28;20021;-60
2023/03/06 03:32:06;;;;;;;13.77;6.70;;;;;;;3.22;81.14;100661.50;5075643;28;20084;-59
2023/03/06 03:34:32;;;;;;;12.82;7.30;;;;;;;3.19;81.33;100664.00;5075766;28;20032;-59
2023/03/06 03:36:57;;;;;;;11.27;5.97;;;;;;;3.17;81.42;100650.88;5057491;28;20397;-59
2023/03/06 03:39:23;;;;;;;12.65;6.38;;;;;;;3.14;81.94;100658.59;5075469;28;20033;-60
2023/03/06 03:41:50;;;;;;;9.68;5.22;;;;;;;3.14;82.03;100658.59;5075687;28;20044;-60
2023/03/06 03:44:15;;;;;;;8.57;6.13;;;;;;;3.11;81.29;100642.81;5075331;28;20392;-60
2023/03/06 03:46:41;;;;;;;9.25;5.85;;;;;;;3.03;81.92;100644.22;5099832;22;20074;-80
2023/03/06 03:49:06;;;;;;;9.00;5.40;;;;;;;2.97;82.03;100647.50;5075576;28;20036;-80
2023/03/06 03:51:31;;;;;;;11.07;6.15;;;;;;;2.81;82.85;100639.03;5057804;28;20074;-80
2023/03/06 03:53:57;;;;;;;11.18;6.65;;;;;;;2.58;83.35;100622.50;5075174;28;20090;-80
2023/03/06 03:56:24;;;;;;;11.45;6.30;;;;;;;2.21;83.99;100575.00;5075182;28;20375;-80
2023/03/06 03:58:50;;;;;;;10.10;6.00;;;;;;;2.50;84.55;100628.31;5075324;28;20527;-80
2023/03/06 04:01:15;;;;;;;10.73;6.28;;;;;;;2.58;84.72;100627.72;5075545;28;20032;-80
2023/03/06 04:03:41;;;;;;;10.52;6.75;;;;;;;2.60;84.26;100619.09;5057212;28;20033;-80
2023/03/06 04:06:06;;;;;;;13.88;6.53;;;;;;;2.62;84.20;100620.06;5075225;28;20050;-80
2023/03/06 04:08:32;;;;;;;10.15;5.97;;;;;;;2.64;83.77;100615.78;5075047;28;20039;-80
2023/03/06 04:10:57;;;;;;;12.75;6.57;;;;;;;2.62;84.37;100600.94;5075347;28;20032;-81
2023/03/06 04:13:23;;;;;;;15.38;7.25;;;;;;;2.74;83.49;100614.41;5040714;28;20020;-80
2023/03/06 04:15:50;;;;;;;12.38;6.90;;;;;;;2.78;83.80;100615.44;5057439;28;20082;-81
2023/03/06 04:18:16;;;;;;;12.48;6.85;;;;;;;2.75;83.71;100609.28;5075192;28;20107;-80
2023/03/06 04:20:43;;;;;;;12.82;7.35;;;;;;;2.87;83.72;100615.78;5074841;28;20112;-81
2023/03/06 04:23:09;;;;;;;12.45;6.90;;;;;;;2.82;83.36;100602.56;5074890;28;20035;-81
2023/03/06 04:25:34;;;;;;;12.35;7.30;;;;;;;2.95;83.80;100609.13;5056475;28;20017;-80
2023/03/06 04:27:59;;;;;;;13.55;7.97;;;;;;;2.81;82.97;100582.53;5074963;28;20115;-81
2023/03/06 04:30:25;;;;;;;14.02;8.23;;;;;;;2.91;83.44;100591.56;5057115;28;20359;-81
2023/03/06 04:32:50;;;;;;;12.95;7.97;;;;;;;2.83;83.72;100582.59;5057101;28;20060;-80
2023/03/06 04:35:16;;;;;;;16.27;8.93;;;;;;;2.92;83.80;100601.22;5057039;28;20378;-80
2023/03/06 04:37:41;;;;;;;17.13;9.55;;;;;;;2.91;83.70;100600.31;5056983;28;20032;-81
2023/03/06 04:40:16;;;;;;;15.25;8.93;;;;;;;2.88;83.66;100586.25;5057267;28;20028;-80
2023/03/06 04:42:41;;;;;;;16.30;9.27;;;;;;;2.93;84.13;100595.16;5074753;28;20517;-80
2023/03/06 04:45:07;;;;;;;16.58;8.80;;;;;;;2.83;84.71;100578.28;5056788;28;20058;-80
2023/03/06 04:47:33;;;;;;;17.65;10.45;;;;;;;2.97;84.79;100594.44;5056316;28;20084;-80
2023/03/06 04:49:58;;;;;;;18.27;10.38;;;;;;;2.90;84.75;100595.91;5074592;28;20059;-80
2023/03/06 04:52:23;;;;;;;15.70;9.55;;;;;;;2.86;84.97;100594.00;5040065;28;20424;-81
2023/03/06 04:54:49;;;;;;;16.83;9.82;;;;;;;2.83;84.85;100575.66;5056013;28;20052;-80
2023/03/06 04:57:14;;;;;;;18.90;10.20;;;;;;;2.81;85.10;100563.38;5074433;28;20078;-80
2023/03/06 04:59:40;;;;;;;19.48;10.43;;;;;;;3.00;84.51;100594.56;5040070;28;20028;-80
2023/03/06 05:02:05;;;;;;;16.85;10.15;;;;;;;3.02;84.79;100592.88;5074380;28;20530;-80
2023/03/06 05:04:30;;;;;;;21.65;11.05;;;;;;;3.03;84.40;100591.16;5074290;28;20032;-80
2023/03/06 05:06:56;;;;;;;21.23;10.70;;;;;;;3.03;84.54;100598.97;5074101;28;20465;-80
2023/03/06 05:09:21;;;;;;;16.77;9.85;;;;;;;3.05;84.98;100586.88;5073928;28;20032;-80
2023/03/06 05:11:47;;;;;;;18.02;10.20;;;;;;;3.05;84.69;100595.59;5074181;28;20029;-80
2023/03/06 05:14:12;;;;;;;18.23;10.48;;;;;;;3.07;84.95;100593.94;5056073;28;20374;-80
2023/03/06 05:16:37;;;;;;;21.17;11.13;;;;;;;3.07;85.20;100586.09;5056230;28;20024;-80
2023/03/06 05:19:03;;;;;;;19.70;11.32;;;;;;;2.99;85.00;100564.03;5056168;28;20025;-80
2023/03/06 05:21:28;;;;;;;18.70;10.68;;;;;;;2.96;84.79;100563.97;5073924;28;20373;-80
2023/03/06 05:23:53;;;;;;;18.55;10.18;;;;;;;3.10;84.83;100578.38;5056047;28;20468;-80
2023/03/06 05:26:19;;;;;;;21.23;11.43;;;;;;;2.92;85.26;100555.13;5055944;28;20029;-80
2023/03/06 05:28:44;;;;;;;24.88;12.48;;;;;;;2.78;85.24;100539.75;5056010;28;20029;-81
2023/03/06 05:31:10;;;;;;;22.25;12.13;;;;;;;2.96;85.29;100570.06;5073777;28;20492;-81
2023/03/06 05:33:36;;;;;;;19.02;10.90;;;;;;;3.00;85.37;100573.69;5055857;28;20442;-80
2023/03/06 05:36:01;;;;;;;24.92;12.77;;;;;;;3.00;85.73;100576.28;5072822;28;20052;-80
2023/03/06 05:38:27;;;;;;;24.10;12.48;;;;;;;2.96;86.00;100564.84;5073561;28;20074;-81
2023/03/06 05:40:53;;;;;;;22.58;11.73;;;;;;;2.95;86.18;100556.94;5073331;28;20028;-81
2023/03/06 05:43:18;;;;;;;22.98;11.95;;;;;;;3.09;85.78;100570.50;5073598;28;20017;-81
2023/03/06 05:45:43;;;;;;;22.63;12.35;;;;;;;3.05;85.60;100564.28;5073560;28;20020;-81
2023/03/06 05:48:11;;;;;;;23.55;12.63;;;;;;;2.89;86.09;100546.28;5073335;28;20048;-82
2023/03/06 05:50:37;;;;;;;23.58;12.40;;;;;;;2.91;86.31;100561.19;5073617;28;20036;-81
2023/03/06 05:53:02;;;;;;;28.27;13.63;;;;;;;2.82;86.16;100547.75;5073338;28;20378;-81
2023/03/06 05:55:28;;;;;;;25.65;13.10;;;;;;;2.94;86.10;100555.16;5073251;28;20052;-81
2023/03/06 05:57:54;;;;;;;23.60;13.20;;;;;;;2.92;86.06;100565.56;5073490;28;20032;-81
2023/03/06 06:00:20;;;;;;;22.95;12.07;;;;;;;2.92;86.18;100551.63;5073380;28;20357;-81
2023/03/06 06:02:45;;;;;;;22.98;12.90;;;;;;;2.93;86.73;100556.00;5073734;28;20028;-81
2023/03/06 06:05:11;;;;;;;24.55;13.50;;;;;;;2.98;86.67;100562.28;5073378;28;20036;-81
2023/03/06 06:07:37;;;;;;;23.27;11.98;;;;;;;2.89;87.03;100539.34;5055466;28;20031;-81
2023/03/06 06:10:03;;;;;;;23.25;13.18;;;;;;;3.05;86.68;100569.50;5073008;28;20024;-81
2023/03/06 06:12:28;;;;;;;26.67;13.75;;;;;;;3.05;86.14;100568.63;5055351;28;20507;-81
2023/03/06 06:14:54;;;;;;;24.48;13.00;;;;;;;3.05;86.52;100566.91;5055026;28;20021;-81
2023/03/06 06:17:19;;;;;;;24.17;13.15;;;;;;;3.06;86.39;100565.16;5055355;28;20033;-81
2023/03/06 06:19:45;;;;;;;24.85;13.07;;;;;;;3.00;86.44;100564.13;5073336;28;20433;-81
2023/03/06 06:22:11;;;;;;;23.65;12.38;;;;;;;2.96;87.38;100561.34;5073176;28;20032;-82
2023/03/06 06:24:36;;;;;;;26.58;13.27;;;;;;;2.94;87.61;100563.00;5072903;28;20033;-81
2023/03/06 06:27:02;;;;;;;25.40;13.77;;;;;;;2.84;86.80;100553.06;5038384;28;20547;-81
2023/03/06 06:29:28;;;;;;;27.55;12.93;;;;;;;2.83;87.62;100556.50;5072337;28;20028;-81
2023/03/06 06:31:54;;;;;;;25.80;12.63;;;;;;;2.85;87.92;100562.66;5072071;28;20196;-81
2023/03/06 06:34:20;;;;;;;24.52;14.23;;;;;;;2.79;87.71;100544.19;5054492;28;20056;-81
2023/03/06 06:36:46;;;;;;;24.63;12.70;;;;;;;2.73;87.81;100539.59;5037578;28;20508;-82
2023/03/06 06:39:16;;;;;;;25.08;13.05;;;;;;;2.74;88.44;100546.59;5072491;28;20056;-82
2023/03/06 06:41:42;;;;;;;23.27;13.13;;;;;;;2.61;88.09;100520.88;5037801;28;20354;-82
2023/03/06 06:44:10;;;;;;;27.70;13.57;;;;;;;2.80;88.64;100559.88;5072192;28;20082;-82
2023/03/06 06:46:36;;;;;;;26.27;13.95;;;;;;;2.79;88.36;100555.50;5072633;28;20029;-82
2023/03/06 06:49:02;;;;;;;27.73;13.77;;;;;;;2.84;88.97;100558.28;5058258;28;20053;-81
2023/03/06 06:51:32;;;;;;;27.45;13.65;;;;;;;2.82;88.85;100550.38;5058391;28;20033;-82
2023/03/06 06:53:58;;;;;;;28.42;14.35;;;;;;;2.85;89.01;100562.66;5076123;28;20028;-82
2023/03/06 06:56:23;;;;;;;24.38;13.20;;;;;;;2.86;88.67;100562.69;5076082;28;20112;-82
2023/03/06 06:58:53;;;;;;;23.85;13.30;;;;;;;2.78;89.21;100542.38;5076150;28;20123;-82
2023/03/06 07:01:19;;;;;;;26.27;13.98;;;;;;;2.97;89.03;100555.28;5058110;28;20116;-83
2023/03/06 07:03:44;;;;;;;25.08;14.02;;;;;;;2.97;88.92;100561.38;5056951;28;20127;-83
2023/03/06 07:06:09;;;;;;;27.13;13.70;;;;;;;3.07;89.15;100569.53;5058003;28;20029;-83
2023/03/06 07:08:35;;;;;;;25.67;13.20;;;;;;;3.04;89.28;100562.50;5058159;28;20376;-82
2023/03/06 07:11:07;;;;;;;25.88;13.38;;;;;;;2.97;89.12;100550.06;5076014;28;20479;-82
2023/03/06 07:13:33;;;;;;;27.52;14.98;;;;;;;2.94;89.15;100553.44;5057978;28;20081;-82
2023/03/06 07:15:58;;;;;;;29.98;14.20;;;;;;;3.06;89.14;100565.16;5041256;28;20119;-82
2023/03/06 07:18:24;;;;;;;24.17;13.43;;;;;;;2.92;89.33;100536.84;5057919;28;20025;-82
2023/03/06 07:20:49;;;;;;;26.75;13.73;;;;;;;3.15;89.89;100574.22;5075576;28;20031;-83
2023/03/06 07:23:14;;;;;;;25.30;14.20;;;;;;;3.11;89.78;100566.22;5057553;28;20580;-84
2023/03/06 07:25:40;;;;;;;29.25;14.65;;;;;;;3.22;89.28;100577.94;5057233;28;20040;-84
2023/03/06 07:28:05;;;;;;;26.67;14.63;;;;;;;3.22;89.26;100578.84;5075544;28;20089;-83
2023/03/06 07:30:31;;;;;;;30.33;15.20;;;;;;;3.17;89.80;100569.94;5057595;28;20028;-82
2023/03/06 07:32:58;;;;;;;27.08;15.38;;;;;;;3.20;90.49;100569.16;5057710;28;20112;-83
2023/03/06 07:35:25;;;;;;;27.10;14.77;;;;;;;3.09;90.14;100547.03;5075419;28;20071;-83
2023/03/06 07:37:51;;;;;;;28.13;14.23;;;;;;;3.15;90.34;100557.66;5057693;28;20401;-83
2023/03/06 07:40:18;;;;;;;31.30;16.33;;;;;;;3.25;90.45;100562.38;5075425;28;20024;-83
2023/03/06 07:42:44;;;;;;;29.15;15.38;;;;;;;3.32;90.62;100566.97;5040884;28;20025;-83
2023/03/06 07:45:11;;;;;;;29.13;15.43;;;;;;;3.38;90.38;100558.47;5057473;28;20032;-83
2023/03/06 07:47:37;;;;;;;33.03;15.82;;;;;;;3.41;90.07;100550.75;5056881;28;20131;-83
2023/03/06 07:50:05;;;;;;;30.70;16.30;;;;;;;3.57;90.25;100567.84;5075049;28;20546;-84
2023/03/06 07:52:31;;;;;;;29.48;15.40;;;;;;;3.56;90.16;100568.69;5074713;28;20389;-83
2023/03/06 07:54:56;;;;;;;30.92;15.40;;;;;;;3.59;90.25;100569.66;5074933;28;20039;-83
2023/03/06 07:57:22;;;;;;;26.27;14.93;;;;;;;3.59;90.20;100572.28;5057120;28;20032;-83
2023/03/06 07:59:47;;;;;;;29.27;15.15;;;;;;;3.50;89.83;100559.78;5055854;28;20403;-84
2023/03/06 08:02:12;;;;;;;30.13;16.38;;;;;;;3.61;90.65;100578.44;5056964;28;20427;-84
2023/03/06 08:04:38;;;;;;;29.65;16.35;;;;;;;3.57;91.14;100563.50;5074978;28;20028;-84
2023/03/06 08:07:03;;;;;;;30.38;15.90;;;;;;;3.63;90.15;100571.53;5074745;28;20035;-83
2023/03/06 08:09:29;;;;;;;30.13;15.65;;;;;;;3.73;90.63;100578.00;5056912;28;20373;-84
2023/03/06 08:11:55;;;;;;;31.50;16.33;;;;;;;3.74;90.71;100571.91;5056796;28;20027;-84
2023/03/06 08:14:21;;;;;;;33.78;17.27;;;;;;;3.67;90.89;100555.13;5056636;28;20028;-84
2023/03/06 08:16:50;;;;;;;28.38;15.20;;;;;;;3.81;91.28;100573.00;5074787;28;20386;-85
2023/03/06 08:19:15;;;;;;;30.92;16.20;;;;;;;3.80;91.23;100563.38;5056509;28;20067;-83
2023/03/06 08:21:40;;;;;;;28.90;15.27;;;;;;;3.90;90.74;100566.38;5040088;28;20052;-84
2023/03/06 08:24:06;;;;;;;28.05;15.57;;;;;;;3.98;90.33;100577.06;5039867;28;20434;-84
2023/03/06 08:26:32;;;;;;;31.48;16.77;;;;;;;3.99;90.33;100577.13;5073937;28;20029;-84
2023/03/06 08:29:00;;;;;;;27.35;15.38;;;;;;;4.03;90.49;100572.88;5074252;28;20055;-84
2023/03/06 08:31:29;;;;;;;31.50;15.15;;;;;;;4.07;90.27;100566.00;5056498;28;20036;-83
2023/03/06 08:33:56;;;;;;;30.27;15.57;;;;;;;4.13;89.90;100569.72;5074124;28;20025;-83
2023/03/06 08:36:22;;;;;;;28.65;15.05;;;;;;;3.99;89.67;100552.72;5073991;28;20037;-83
2023/03/06 08:38:48;;;;;;;27.20;15.38;;;;;;;4.09;89.68;100570.47;5039700;28;20028;-84
2023/03/06 08:41:13;;;;;;;28.85;15.10;;;;;;;4.17;90.77;100566.38;5056306;28;20031;-84
2023/03/06 08:43:39;;;;;;;29.63;15.20;;;;;;;4.32;90.87;100573.78;5056382;28;20032;-84
2023/03/06 08:46:04;;;;;;;29.88;15.98;;;;;;;4.53;90.33;100569.22;5039402;28;20037;-84
2023/03/06 08:48:30;;;;;;;31.15;16.50;;;;;;;4.88;91.29;100558.94;5055958;28;20079;-84
2023/03/06 08:50:55;;;;;;;28.17;15.35;;;;;;;5.27;89.69;100582.75;5055605;28;20025;-84
2023/03/06 08:53:21;;;;;;;28.70;15.63;;;;;;;5.48;87.55;100573.69;5073741;28;20048;-84
2023/03/06 08:55:47;;;;;;;29.70;15.38;;;;;;;5.54;86.69;100576.47;5055625;28;20032;-83
2023/03/06 08:58:12;;;;;;;27.08;15.65;;;;;;;5.59;86.06;100568.75;5055709;28;20123;-85
2023/03/06 09:00:41;;;;;;;28.25;14.32;;;;;;;5.68;85.80;100554.13;5073753;28;20032;-85
2023/03/06 09:03:06;;;;;;;26.55;14.30;;;;;;;5.77;85.64;100543.88;5073676;28;20037;-84
2023/03/06 09:05:32;;;;;;;25.45;14.93;;;;;;;6.24;84.76;100574.78;5055470;28;20025;-84
2023/03/06 09:07:57;;;;;;;24.35;13.88;;;;;;;6.34;84.01;100570.63;5055664;28;20033;-84
2023/03/06 09:10:25;;;;;;;26.00;13.55;;;;;;;6.24;83.50;100569.53;5055624;28;20040;-84
2023/03/06 09:12:51;;;;;;;23.63;13.43;;;;;;;6.19;84.05;100579.03;5055478;28;20051;-84
2023/03/06 09:15:18;;;;;;;20.10;12.93;;;;;;;6.14;83.45;100573.69;5073015;28;20466;-85
2023/03/06 09:17:43;;;;;;;21.60;13.15;;;;;;;6.02;82.81;100568.13;5055306;28;20335;-85
2023/03/06 09:20:10;;;;;;;21.60;13.52;;;;;;;5.91;82.60;100569.56;5055674;28;20050;-87
2023/03/06 09:22:36;;;;;;;21.30;12.07;;;;;;;5.93;83.61;100573.16;5073097;28;20059;-84
2023/03/06 09:25:02;;;;;;;21.95;13.02;;;;;;;5.91;83.71;100578.34;5073078;28;20460;-85
2023/03/06 09:27:27;;;;;;;22.20;12.60;;;;;;;5.90;83.10;100579.16;5072964;28;20078;-84
2023/03/06 09:29:54;;;;;;;21.88;12.57;;;;;;;5.76;84.00;100565.72;5055560;28;20416;-84
2023/03/06 09:32:20;;;;;;;19.60;11.48;;;;;;;5.82;83.10;100582.44;5055253;28;20466;-84
2023/03/06 09:34:45;;;;;;;21.05;12.07;;;;;;;5.74;83.23;100585.75;5054952;28;20082;-84
2023/03/06 09:37:10;;;;;;;18.70;11.30;;;;;;;5.68;83.39;100579.47;5040918;28;20071;-84
2023/03/06 09:39:36;;;;;;;19.50;11.70;;;;;;;5.69;83.72;100586.47;5046865;28;20493;-84
2023/03/06 09:42:02;;;;;;;20.05;11.35;;;;;;;5.65;83.53;100582.00;5073394;28;20024;-84
2023/03/06 09:44:30;;;;;;;18.42;10.82;;;;;;;5.65;83.77;100582.91;5055887;28;20031;-84
2023/03/06 09:47:16;;;;;;;19.33;10.60;;;;;;;5.58;83.06;100567.84;5073394;28;20078;-84
2023/03/06 09:49:47;;;;;;;19.40;10.80;;;;;;;5.68;82.89;100587.31;5055516;28;20118;-85
2023/03/06 09:52:29;;;;;;;19.83;11.02;;;;;;;5.69;82.97;100579.50;5072963;28;20388;-85
2023/03/06 09:55:00;;;;;;;23.08;11.02;;;;;;;5.74;82.56;100587.50;5072340;28;20028;-84
2023/03/06 09:57:29;;;;;;;20.23;10.73;;;;;;;5.76;82.93;100577.94;5072970;28;20111;-84
2023/03/06 09:59:59;;;;;;;21.00;10.45;;;;;;;5.72;82.26;100570.84;5072694;28;20068;-84
2023/03/06 10:02:44;;;;;;;23.40;11.38;;;;;;;5.81;82.61;100586.78;5054750;28;20031;-84
2023/03/06 10:05:17;;;;;;;21.35;10.77;;;;;;;5.80;82.28;100573.66;5054722;28;20024;-85
2023/03/06 10:07:49;;;;;;;16.90;9.90;;;;;;;5.83;82.12;100579.00;5072679;28;20407;-85
2023/03/06 10:10:19;;;;;;;19.13;11.20;;;;;;;5.49;82.59;100520.44;5072753;28;20028;-84
2023/03/06 10:12:52;;;;;;;19.60;10.10;;;;;;;5.78;81.28;100569.28;5072700;28;20112;-84
2023/03/06 10:15:25;;;;;;;19.98;11.60;;;;;;;5.75;81.63;100557.81;5072510;28;20024;-85
2023/03/06 10:17:52;;;;;;;18.67;10.07;;;;;;;5.86;81.39;100584.28;5054812;28;20025;-84
2023/03/06 10:20:19;;;;;;;16.70;10.25;;;;;;;5.74;81.48;100554.31;5054530;28;20522;-84
2023/03/06 10:22:50;;;;;;;17.63;10.57;;;;;;;5.90;81.03;100578.28;5059101;28;20028;-84
2023/03/06 10:25:26;;;;;;;17.02;10.90;;;;;;;5.90;81.87;100571.28;5060943;28;20066;-84
2023/03/06 10:28:04;;;;;;;22.67;10.63;;;;;;;5.91;80.55;100561.69;5079385;28;20025;-84
2023/03/06 10:30:43;;;;;;;17.48;10.15;;;;;;;6.02;81.16;100566.38;5079211;28;20021;-84
2023/03/06 10:33:27;;;;;;;15.43;9.90;;;;;;;5.99;80.96;100554.94;5079030;28;20361;-84
2023/03/06 10:35:54;;;;;;;17.90;10.63;;;;;;;5.94;79.63;100538.19;5079127;28;20027;-84
2023/03/06 10:38:20;;;;;;;15.38;9.50;;;;;;;6.21;80.62;100567.75;5061026;28;20020;-84
2023/03/06 10:41:00;;;;;;;15.85;9.70;;;;;;;6.37;80.21;100563.72;5079072;28;20032;-84
2023/03/06 10:43:26;;;;;;;12.77;8.32;;;;;;;6.43;78.58;100542.00;5061063;28;20032;-84
2023/03/06 10:45:52;;;;;;;13.70;8.65;;;;;;;6.77;79.68;100559.38;5044601;28;20430;-84
2023/03/06 10:48:24;;;;;;;18.33;10.25;;;;;;;7.10;78.12;100559.16;5060824;28;20052;-84
2023/03/06 10:50:51;;;;;;;18.33;10.63;;;;;;;7.34;77.17;100556.16;5079136;28;20032;-85
2023/03/06 10:53:24;;;;;;;21.60;10.13;;;;;;;7.42;75.77;100565.06;5060693;28;20043;-85
2023/03/06 10:55:55;;;;;;;17.83;10.30;;;;;;;7.70;76.98;100550.66;5078849;28;20032;-85
2023/03/06 10:58:30;;;;;;;15.52;9.98;;;;;;;8.09;74.25;100552.19;5078872;28;20024;-84
2023/03/06 11:01:17;;;;;;;20.38;10.82;;;;;;;8.06;72.54;100541.63;5061072;28;20082;-83
2023/03/06 11:03:43;;;;;;;15.90;9.68;;;;;;;8.19;72.74;100556.75;5060931;28;20450;-84
2023/03/06 11:06:14;;;;;;;13.95;9.25;;;;;;;8.33;71.36;100562.22;5061011;28;20028;-85
2023/03/06 11:08:42;;;;;;;17.80;9.52;;;;;;;8.39;71.08;100558.81;5059822;28;20043;-85
2023/03/06 11:11:11;;;;;;;18.15;9.85;;;;;;;8.29;70.05;100560.41;5079027;28;20115;-84
2023/03/06 11:13:39;;;;;;;15.75;9.85;;;;;;;8.14;71.53;100542.63;5078802;28;20031;-84
2023/03/06 11:16:16;;;;;;;15.75;9.48;;;;;;;8.18;70.89;100561.97;5061280;28;20031;-84
2023/03/06 11:18:54;;;;;;;17.63;9.68;;;;;;;7.96;70.90;100555.47;5079101;28;20020;-84
2023/03/06 11:21:32;;;;;;;15.23;10.23;;;;;;;7.71;72.28;100549.81;5078598;28;20115;-84
2023/03/06 11:24:33;;;;;;;18.08;8.77;;;;;;;7.75;72.66;100562.16;5078268;28;20035;-87